sensor_id;sensor_type;location;lat;lon;timestamp;P1;durP1;ratioP1;P2;durP2;ratioP2
7883;SDS011;3987;51.458;7.238;2022-08-11T00:01:53;3.80;;;1.93;;
7883;SDS011;3987;51.458;7.238;2022-08-11T00:04:23;3.27;;;2.20;;
7883;SDS011;3987;51.458;7.238;2022-08-11T00:06:49;1.80;;;1.80;;
7883;SDS011;3987;51.458;7.238;2022-08-11T00:09:21;2.37;;;2.00;;
7883;SDS011;3987;51.458;7.238;2022-08-11T00:11:55;1.97;;;1.90;;
7883;SDS011;3987;51.458;7.238;2022-08-11T00:14:23;2.07;;;2.03;;
7883;SDS011;3987;51.458;7.238;2022-08-11T00:16:59;1.90;;;1.80;;
7883;SDS011;3987;51.458;7.238;2022-08-11T00:19:41;1.97;;;1.87;;
7883;SDS011;3987;51.458;7.238;2022-08-11T00:22:08;1.97;;;1.90;;
7883;SDS011;3987;51.458;7.238;2022-08-11T00:24:38;1.90;;;1.80;;
7883;SDS011;3987;51.458;7.238;2022-08-11T00:27:04;2.10;;;2.00;;
7883;SDS011;3987;51.458;7.238;2022-08-11T00:29:31;2.00;;;1.93;;
7883;SDS011;3987;51.458;7.238;2022-08-11T00:31:57;4.20;;;2.43;;
7883;SDS011;3987;51.458;7.238;2022-08-11T00:34:31;2.13;;;1.90;;
7883;SDS011;3987;51.458;7.238;2022-08-11T00:37:02;2.00;;;2.00;;
7883;SDS011;3987;51.458;7.238;2022-08-11T00:39:32;2.47;;;2.27;;
7883;SDS011;3987;51.458;7.238;2022-08-11T00:44:54;3.97;;;2.60;;
7883;SDS011;3987;51.458;7.238;2022-08-11T00:47:39;2.20;;;1.87;;
7883;SDS011;3987;51.458;7.238;2022-08-11T01:04:51;2.30;;;2.20;;
7883;SDS011;3987;51.458;7.238;2022-08-11T01:10:47;2.37;;;2.27;;
7883;SDS011;3987;51.458;7.238;2022-08-11T01:19:02;4.07;;;2.33;;
7883;SDS011;3987;51.458;7.238;2022-08-11T01:33:17;2.23;;;2.23;;
7883;SDS011;3987;51.458;7.238;2022-08-11T01:36:22;2.37;;;2.33;;
7883;SDS011;3987;51.458;7.238;2022-08-11T01:47:48;2.10;;;2.00;;
7883;SDS011;3987;51.458;7.238;2022-08-11T01:53:35;2.97;;;2.77;;
7883;SDS011;3987;51.458;7.238;2022-08-11T01:58:54;3.07;;;2.87;;
7883;SDS011;3987;51.458;7.238;2022-08-11T02:13:21;2.87;;;2.70;;
7883;SDS011;3987;51.458;7.238;2022-08-11T02:18:51;2.53;;;2.33;;
7883;SDS011;3987;51.458;7.238;2022-08-11T02:21:49;3.73;;;2.70;;
7883;SDS011;3987;51.458;7.238;2022-08-11T02:24:44;3.33;;;2.57;;
7883;SDS011;3987;51.458;7.238;2022-08-11T02:27:18;2.97;;;2.87;;
7883;SDS011;3987;51.458;7.238;2022-08-11T02:29:48;2.50;;;2.40;;
7883;SDS011;3987;51.458;7.238;2022-08-11T02:32:19;2.70;;;2.60;;
7883;SDS011;3987;51.458;7.238;2022-08-11T02:37:45;3.53;;;2.77;;
7883;SDS011;3987;51.458;7.238;2022-08-11T02:40:24;8.27;;;2.63;;
7883;SDS011;3987;51.458;7.238;2022-08-11T02:45:46;4.10;;;2.73;;
7883;SDS011;3987;51.458;7.238;2022-08-11T02:48:44;2.73;;;2.63;;
7883;SDS011;3987;51.458;7.238;2022-08-11T02:51:49;2.77;;;2.67;;
7883;SDS011;3987;51.458;7.238;2022-08-11T02:54:24;3.03;;;2.87;;
7883;SDS011;3987;51.458;7.238;2022-08-11T03:07:27;3.60;;;3.30;;
7883;SDS011;3987;51.458;7.238;2022-08-11T03:10:05;5.73;;;3.43;;
7883;SDS011;3987;51.458;7.238;2022-08-11T03:12:56;3.27;;;3.07;;
7883;SDS011;3987;51.458;7.238;2022-08-11T03:16:08;3.20;;;3.00;;
7883;SDS011;3987;51.458;7.238;2022-08-11T03:21:46;3.13;;;2.93;;
7883;SDS011;3987;51.458;7.238;2022-08-11T03:27:35;3.03;;;2.90;;
7883;SDS011;3987;51.458;7.238;2022-08-11T03:30:09;3.23;;;3.13;;
7883;SDS011;3987;51.458;7.238;2022-08-11T03:33:14;3.73;;;3.53;;
7883;SDS011;3987;51.458;7.238;2022-08-11T03:36:04;5.23;;;3.13;;
7883;SDS011;3987;51.458;7.238;2022-08-11T03:50:03;3.60;;;3.40;;
7883;SDS011;3987;51.458;7.238;2022-08-11T03:55:46;3.80;;;3.57;;
7883;SDS011;3987;51.458;7.238;2022-08-11T04:07:32;4.07;;;3.50;;
7883;SDS011;3987;51.458;7.238;2022-08-11T04:10:06;4.33;;;3.83;;
7883;SDS011;3987;51.458;7.238;2022-08-11T04:12:52;4.70;;;3.70;;
7883;SDS011;3987;51.458;7.238;2022-08-11T04:24:31;6.20;;;3.70;;
7883;SDS011;3987;51.458;7.238;2022-08-11T04:32:27;4.27;;;3.97;;
7883;SDS011;3987;51.458;7.238;2022-08-11T04:37:43;10.57;;;4.00;;
7883;SDS011;3987;51.458;7.238;2022-08-11T04:48:46;4.27;;;3.53;;
7883;SDS011;3987;51.458;7.238;2022-08-11T05:07:11;3.90;;;3.70;;
7883;SDS011;3987;51.458;7.238;2022-08-11T05:15:00;3.80;;;3.50;;
7883;SDS011;3987;51.458;7.238;2022-08-11T05:17:52;3.90;;;3.77;;
7883;SDS011;3987;51.458;7.238;2022-08-11T05:20:42;8.53;;;4.30;;
7883;SDS011;3987;51.458;7.238;2022-08-11T05:23:31;3.73;;;3.53;;
7883;SDS011;3987;51.458;7.238;2022-08-11T05:26:16;3.50;;;3.30;;
7883;SDS011;3987;51.458;7.238;2022-08-11T05:29:02;3.53;;;3.33;;
7883;SDS011;3987;51.458;7.238;2022-08-11T05:31:50;3.20;;;3.00;;
7883;SDS011;3987;51.458;7.238;2022-08-11T05:34:43;4.40;;;4.00;;
7883;SDS011;3987;51.458;7.238;2022-08-11T05:39:57;3.50;;;3.30;;
7883;SDS011;3987;51.458;7.238;2022-08-11T05:42:53;4.67;;;3.53;;
7883;SDS011;3987;51.458;7.238;2022-08-11T05:45:39;4.40;;;2.80;;
7883;SDS011;3987;51.458;7.238;2022-08-11T05:48:28;3.67;;;3.33;;
7883;SDS011;3987;51.458;7.238;2022-08-11T05:51:13;3.67;;;3.47;;
7883;SDS011;3987;51.458;7.238;2022-08-11T05:53:58;3.53;;;3.23;;
7883;SDS011;3987;51.458;7.238;2022-08-11T05:56:43;3.27;;;2.83;;
7883;SDS011;3987;51.458;7.238;2022-08-11T05:59:14;5.37;;;3.13;;
7883;SDS011;3987;51.458;7.238;2022-08-11T06:01:42;3.67;;;3.37;;
7883;SDS011;3987;51.458;7.238;2022-08-11T06:04:11;3.57;;;3.30;;
7883;SDS011;3987;51.458;7.238;2022-08-11T06:06:47;3.70;;;3.50;;
7883;SDS011;3987;51.458;7.238;2022-08-11T06:09:26;3.23;;;3.03;;
7883;SDS011;3987;51.458;7.238;2022-08-11T06:12:00;3.90;;;3.60;;
7883;SDS011;3987;51.458;7.238;2022-08-11T06:14:28;4.33;;;4.00;;
7883;SDS011;3987;51.458;7.238;2022-08-11T06:16:55;4.20;;;3.87;;
7883;SDS011;3987;51.458;7.238;2022-08-11T06:19:28;3.53;;;3.03;;
7883;SDS011;3987;51.458;7.238;2022-08-11T06:22:18;3.50;;;3.40;;
7883;SDS011;3987;51.458;7.238;2022-08-11T06:24:50;4.17;;;3.47;;
7883;SDS011;3987;51.458;7.238;2022-08-11T06:27:18;3.33;;;3.17;;
7883;SDS011;3987;51.458;7.238;2022-08-11T06:29:45;5.13;;;3.30;;
7883;SDS011;3987;51.458;7.238;2022-08-11T06:32:13;3.57;;;3.37;;
7883;SDS011;3987;51.458;7.238;2022-08-11T06:34:47;3.87;;;3.30;;
7883;SDS011;3987;51.458;7.238;2022-08-11T06:40:35;3.57;;;3.27;;
7883;SDS011;3987;51.458;7.238;2022-08-11T06:43:15;9.00;;;3.40;;
7883;SDS011;3987;51.458;7.238;2022-08-11T06:46:00;4.77;;;3.00;;
7883;SDS011;3987;51.458;7.238;2022-08-11T06:48:28;3.57;;;3.10;;
7883;SDS011;3987;51.458;7.238;2022-08-11T06:50:56;5.13;;;2.80;;
7883;SDS011;3987;51.458;7.238;2022-08-11T06:56:04;3.33;;;3.03;;
7883;SDS011;3987;51.458;7.238;2022-08-11T06:58:50;3.17;;;2.83;;
7883;SDS011;3987;51.458;7.238;2022-08-11T07:01:36;3.27;;;2.90;;
7883;SDS011;3987;51.458;7.238;2022-08-11T07:04:13;3.13;;;2.83;;
7883;SDS011;3987;51.458;7.238;2022-08-11T07:07:00;3.43;;;2.73;;
7883;SDS011;3987;51.458;7.238;2022-08-11T07:10:08;3.20;;;2.87;;
7883;SDS011;3987;51.458;7.238;2022-08-11T07:13:07;4.13;;;2.50;;
7883;SDS011;3987;51.458;7.238;2022-08-11T07:15:52;4.03;;;2.70;;
7883;SDS011;3987;51.458;7.238;2022-08-11T07:18:24;3.10;;;2.93;;
7883;SDS011;3987;51.458;7.238;2022-08-11T07:21:14;3.10;;;2.90;;
7883;SDS011;3987;51.458;7.238;2022-08-11T07:24:02;2.40;;;2.30;;
7883;SDS011;3987;51.458;7.238;2022-08-11T07:26:50;3.60;;;2.57;;
7883;SDS011;3987;51.458;7.238;2022-08-11T07:29:36;3.37;;;3.03;;
7883;SDS011;3987;51.458;7.238;2022-08-11T07:32:13;3.03;;;2.60;;
7883;SDS011;3987;51.458;7.238;2022-08-11T07:34:44;2.77;;;2.67;;
7883;SDS011;3987;51.458;7.238;2022-08-11T07:37:14;4.47;;;2.93;;
7883;SDS011;3987;51.458;7.238;2022-08-11T07:39:42;2.80;;;2.60;;
7883;SDS011;3987;51.458;7.238;2022-08-11T07:42:12;5.97;;;3.23;;
7883;SDS011;3987;51.458;7.238;2022-08-11T07:44:40;6.70;;;3.00;;
7883;SDS011;3987;51.458;7.238;2022-08-11T07:47:25;4.30;;;2.70;;
7883;SDS011;3987;51.458;7.238;2022-08-11T07:50:10;2.63;;;2.30;;
7883;SDS011;3987;51.458;7.238;2022-08-11T07:52:56;2.63;;;2.50;;
7883;SDS011;3987;51.458;7.238;2022-08-11T07:55:23;2.53;;;2.43;;
7883;SDS011;3987;51.458;7.238;2022-08-11T07:57:49;2.77;;;2.53;;
7883;SDS011;3987;51.458;7.238;2022-08-11T08:00:38;2.60;;;2.40;;
7883;SDS011;3987;51.458;7.238;2022-08-11T08:03:25;3.43;;;3.07;;
7883;SDS011;3987;51.458;7.238;2022-08-11T08:06:11;4.87;;;2.73;;
7883;SDS011;3987;51.458;7.238;2022-08-11T08:08:55;2.73;;;2.53;;
7883;SDS011;3987;51.458;7.238;2022-08-11T08:11:39;3.33;;;2.50;;
7883;SDS011;3987;51.458;7.238;2022-08-11T08:14:24;3.93;;;2.40;;
7883;SDS011;3987;51.458;7.238;2022-08-11T08:17:08;3.40;;;2.47;;
7883;SDS011;3987;51.458;7.238;2022-08-11T08:19:53;5.15;;;2.90;;
7883;SDS011;3987;51.458;7.238;2022-08-11T08:22:19;5.90;;;3.00;;
7883;SDS011;3987;51.458;7.238;2022-08-11T08:24:45;2.60;;;2.40;;
7883;SDS011;3987;51.458;7.238;2022-08-11T08:27:12;8.57;;;2.78;;
7883;SDS011;3987;51.458;7.238;2022-08-11T08:29:38;2.55;;;2.17;;
7883;SDS011;3987;51.458;7.238;2022-08-11T08:32:23;3.08;;;2.65;;
7883;SDS011;3987;51.458;7.238;2022-08-11T08:34:50;5.35;;;2.65;;
7883;SDS011;3987;51.458;7.238;2022-08-11T08:37:19;2.45;;;2.30;;
7883;SDS011;3987;51.458;7.238;2022-08-11T08:39:47;2.63;;;2.25;;
7883;SDS011;3987;51.458;7.238;2022-08-11T08:42:16;2.95;;;2.08;;
7883;SDS011;3987;51.458;7.238;2022-08-11T08:44:44;3.25;;;2.22;;
7883;SDS011;3987;51.458;7.238;2022-08-11T08:47:12;3.45;;;2.60;;
7883;SDS011;3987;51.458;7.238;2022-08-11T08:49:40;4.93;;;2.65;;
7883;SDS011;3987;51.458;7.238;2022-08-11T08:52:12;2.67;;;2.30;;
7883;SDS011;3987;51.458;7.238;2022-08-11T08:54:41;2.53;;;2.35;;
7883;SDS011;3987;51.458;7.238;2022-08-11T08:57:08;4.13;;;2.70;;
7883;SDS011;3987;51.458;7.238;2022-08-11T08:59:38;2.92;;;2.60;;
7883;SDS011;3987;51.458;7.238;2022-08-11T09:02:05;5.05;;;2.10;;
7883;SDS011;3987;51.458;7.238;2022-08-11T09:04:31;2.55;;;2.20;;
7883;SDS011;3987;51.458;7.238;2022-08-11T09:06:58;3.67;;;2.25;;
7883;SDS011;3987;51.458;7.238;2022-08-11T09:09:43;4.60;;;2.08;;
7883;SDS011;3987;51.458;7.238;2022-08-11T09:12:10;2.08;;;1.92;;
7883;SDS011;3987;51.458;7.238;2022-08-11T09:14:37;3.60;;;2.10;;
7883;SDS011;3987;51.458;7.238;2022-08-11T09:17:23;3.92;;;2.25;;
7883;SDS011;3987;51.458;7.238;2022-08-11T09:19:50;2.40;;;2.15;;
7883;SDS011;3987;51.458;7.238;2022-08-11T09:22:31;2.20;;;2.10;;
7883;SDS011;3987;51.458;7.238;2022-08-11T09:25:17;3.72;;;1.70;;
7883;SDS011;3987;51.458;7.238;2022-08-11T09:28:02;3.00;;;1.98;;
7883;SDS011;3987;51.458;7.238;2022-08-11T09:30:29;2.33;;;2.13;;
7883;SDS011;3987;51.458;7.238;2022-08-11T09:32:56;3.55;;;2.08;;
7883;SDS011;3987;51.458;7.238;2022-08-11T09:35:28;2.05;;;1.95;;
7883;SDS011;3987;51.458;7.238;2022-08-11T09:37:55;2.00;;;1.90;;
7883;SDS011;3987;51.458;7.238;2022-08-11T09:40:41;3.35;;;1.80;;
7883;SDS011;3987;51.458;7.238;2022-08-11T09:43:10;4.53;;;2.55;;
7883;SDS011;3987;51.458;7.238;2022-08-11T09:45:56;2.63;;;2.42;;
7883;SDS011;3987;51.458;7.238;2022-08-11T09:48:23;8.43;;;2.60;;
7883;SDS011;3987;51.458;7.238;2022-08-11T09:50:52;4.72;;;2.10;;
7883;SDS011;3987;51.458;7.238;2022-08-11T09:53:19;2.67;;;2.33;;
7883;SDS011;3987;51.458;7.238;2022-08-11T09:55:45;2.83;;;1.77;;
7883;SDS011;3987;51.458;7.238;2022-08-11T09:58:11;4.32;;;2.10;;
7883;SDS011;3987;51.458;7.238;2022-08-11T10:00:38;5.55;;;1.90;;
7883;SDS011;3987;51.458;7.238;2022-08-11T10:03:09;3.20;;;1.90;;
7883;SDS011;3987;51.458;7.238;2022-08-11T10:05:49;1.70;;;1.60;;
7883;SDS011;3987;51.458;7.238;2022-08-11T10:08:42;2.47;;;1.80;;
7883;SDS011;3987;51.458;7.238;2022-08-11T10:11:10;3.42;;;1.83;;
7883;SDS011;3987;51.458;7.238;2022-08-11T10:13:40;5.00;;;1.48;;
7883;SDS011;3987;51.458;7.238;2022-08-11T10:16:27;1.80;;;1.60;;
7883;SDS011;3987;51.458;7.238;2022-08-11T10:18:53;6.85;;;1.85;;
7883;SDS011;3987;51.458;7.238;2022-08-11T10:21:35;2.45;;;1.95;;
7883;SDS011;3987;51.458;7.238;2022-08-11T10:24:04;4.43;;;1.90;;
7883;SDS011;3987;51.458;7.238;2022-08-11T10:26:49;7.40;;;1.90;;
7883;SDS011;3987;51.458;7.238;2022-08-11T10:29:17;3.70;;;1.95;;
7883;SDS011;3987;51.458;7.238;2022-08-11T10:32:01;8.18;;;2.25;;
7883;SDS011;3987;51.458;7.238;2022-08-11T10:34:46;5.72;;;1.98;;
7883;SDS011;3987;51.458;7.238;2022-08-11T10:37:13;11.82;;;2.58;;
7883;SDS011;3987;51.458;7.238;2022-08-11T10:39:39;3.90;;;1.85;;
7883;SDS011;3987;51.458;7.238;2022-08-11T10:42:05;2.42;;;1.67;;
7883;SDS011;3987;51.458;7.238;2022-08-11T10:44:50;2.22;;;1.75;;
7883;SDS011;3987;51.458;7.238;2022-08-11T10:47:17;1.83;;;1.73;;
7883;SDS011;3987;51.458;7.238;2022-08-11T10:50:06;4.13;;;2.00;;
7883;SDS011;3987;51.458;7.238;2022-08-11T10:52:51;7.82;;;2.00;;
7883;SDS011;3987;51.458;7.238;2022-08-11T10:55:35;6.35;;;2.22;;
7883;SDS011;3987;51.458;7.238;2022-08-11T10:58:20;3.13;;;2.53;;
7883;SDS011;3987;51.458;7.238;2022-08-11T11:01:05;3.13;;;1.95;;
7883;SDS011;3987;51.458;7.238;2022-08-11T11:03:30;2.92;;;2.10;;
7883;SDS011;3987;51.458;7.238;2022-08-11T11:06:21;6.90;;;2.10;;
7883;SDS011;3987;51.458;7.238;2022-08-11T11:08:50;4.30;;;2.35;;
7883;SDS011;3987;51.458;7.238;2022-08-11T11:11:37;4.05;;;2.25;;
7883;SDS011;3987;51.458;7.238;2022-08-11T11:14:24;3.53;;;2.10;;
7883;SDS011;3987;51.458;7.238;2022-08-11T11:17:11;3.35;;;2.00;;
7883;SDS011;3987;51.458;7.238;2022-08-11T11:19:56;2.65;;;1.70;;
7883;SDS011;3987;51.458;7.238;2022-08-11T11:22:23;4.03;;;1.90;;
7883;SDS011;3987;51.458;7.238;2022-08-11T11:34:19;2.95;;;2.17;;
7883;SDS011;3987;51.458;7.238;2022-08-11T11:36:47;2.08;;;1.85;;
7883;SDS011;3987;51.458;7.238;2022-08-11T11:39:21;5.68;;;2.42;;
7883;SDS011;3987;51.458;7.238;2022-08-11T11:41:48;3.40;;;2.05;;
7883;SDS011;3987;51.458;7.238;2022-08-11T11:44:16;2.45;;;1.70;;
7883;SDS011;3987;51.458;7.238;2022-08-11T11:46:42;1.98;;;1.88;;
7883;SDS011;3987;51.458;7.238;2022-08-11T11:49:09;3.65;;;2.08;;
7883;SDS011;3987;51.458;7.238;2022-08-11T11:51:35;2.53;;;1.70;;
7883;SDS011;3987;51.458;7.238;2022-08-11T11:54:01;2.17;;;1.98;;
7883;SDS011;3987;51.458;7.238;2022-08-11T11:56:29;3.65;;;1.90;;
7883;SDS011;3987;51.458;7.238;2022-08-11T11:58:55;4.03;;;2.22;;
7883;SDS011;3987;51.458;7.238;2022-08-11T12:01:39;3.42;;;1.83;;
7883;SDS011;3987;51.458;7.238;2022-08-11T12:04:07;2.95;;;1.90;;
7883;SDS011;3987;51.458;7.238;2022-08-11T12:06:36;2.20;;;2.08;;
7883;SDS011;3987;51.458;7.238;2022-08-11T12:09:02;3.30;;;2.33;;
7883;SDS011;3987;51.458;7.238;2022-08-11T12:11:28;2.58;;;2.00;;
7883;SDS011;3987;51.458;7.238;2022-08-11T12:14:14;6.55;;;2.30;;
7883;SDS011;3987;51.458;7.238;2022-08-11T12:16:42;3.13;;;2.08;;
7883;SDS011;3987;51.458;7.238;2022-08-11T12:19:10;2.67;;;2.17;;
7883;SDS011;3987;51.458;7.238;2022-08-11T12:21:40;2.33;;;1.92;;
7883;SDS011;3987;51.458;7.238;2022-08-11T12:24:25;6.18;;;2.35;;
7883;SDS011;3987;51.458;7.238;2022-08-11T12:27:11;5.88;;;2.58;;
7883;SDS011;3987;51.458;7.238;2022-08-11T12:29:47;3.03;;;2.47;;
7883;SDS011;3987;51.458;7.238;2022-08-11T12:32:14;2.40;;;2.30;;
7883;SDS011;3987;51.458;7.238;2022-08-11T12:34:39;2.50;;;2.00;;
7883;SDS011;3987;51.458;7.238;2022-08-11T12:37:05;4.90;;;2.03;;
7883;SDS011;3987;51.458;7.238;2022-08-11T12:39:36;7.97;;;1.92;;
7883;SDS011;3987;51.458;7.238;2022-08-11T12:42:20;3.10;;;2.20;;
7883;SDS011;3987;51.458;7.238;2022-08-11T12:45:10;2.38;;;2.13;;
7883;SDS011;3987;51.458;7.238;2022-08-11T12:47:52;4.25;;;2.50;;
7883;SDS011;3987;51.458;7.238;2022-08-11T12:50:51;3.55;;;2.17;;
7883;SDS011;3987;51.458;7.238;2022-08-11T12:53:42;3.22;;;1.90;;
7883;SDS011;3987;51.458;7.238;2022-08-11T12:56:21;6.20;;;1.98;;
7883;SDS011;3987;51.458;7.238;2022-08-11T12:59:06;2.70;;;1.70;;
7883;SDS011;3987;51.458;7.238;2022-08-11T13:01:51;4.00;;;2.28;;
7883;SDS011;3987;51.458;7.238;2022-08-11T13:04:35;3.85;;;2.15;;
7883;SDS011;3987;51.458;7.238;2022-08-11T13:07:19;7.75;;;1.92;;
7883;SDS011;3987;51.458;7.238;2022-08-11T13:09:45;8.07;;;2.15;;
7883;SDS011;3987;51.458;7.238;2022-08-11T13:12:12;7.57;;;2.20;;
7883;SDS011;3987;51.458;7.238;2022-08-11T13:14:57;7.97;;;2.10;;
7883;SDS011;3987;51.458;7.238;2022-08-11T13:17:23;6.47;;;1.92;;
7883;SDS011;3987;51.458;7.238;2022-08-11T13:19:50;3.53;;;1.65;;
7883;SDS011;3987;51.458;7.238;2022-08-11T13:22:19;6.20;;;2.80;;
7883;SDS011;3987;51.458;7.238;2022-08-11T13:24:46;8.93;;;2.10;;
7883;SDS011;3987;51.458;7.238;2022-08-11T13:27:12;2.90;;;1.90;;
7883;SDS011;3987;51.458;7.238;2022-08-11T13:29:41;1.80;;;1.60;;
7883;SDS011;3987;51.458;7.238;2022-08-11T13:32:07;2.17;;;2.08;;
7883;SDS011;3987;51.458;7.238;2022-08-11T13:34:32;2.60;;;1.73;;
7883;SDS011;3987;51.458;7.238;2022-08-11T13:37:05;2.25;;;2.15;;
7883;SDS011;3987;51.458;7.238;2022-08-11T13:39:32;1.85;;;1.85;;
7883;SDS011;3987;51.458;7.238;2022-08-11T13:41:59;6.13;;;2.08;;
7883;SDS011;3987;51.458;7.238;2022-08-11T13:44:28;4.15;;;1.80;;
7883;SDS011;3987;51.458;7.238;2022-08-11T13:46:56;8.32;;;2.30;;
7883;SDS011;3987;51.458;7.238;2022-08-11T13:49:25;3.42;;;1.60;;
7883;SDS011;3987;51.458;7.238;2022-08-11T13:51:50;3.05;;;1.73;;
7883;SDS011;3987;51.458;7.238;2022-08-11T13:54:19;2.30;;;2.20;;
7883;SDS011;3987;51.458;7.238;2022-08-11T13:56:46;2.10;;;1.83;;
7883;SDS011;3987;51.458;7.238;2022-08-11T13:59:13;2.83;;;1.70;;
7883;SDS011;3987;51.458;7.238;2022-08-11T14:01:41;2.05;;;1.85;;
7883;SDS011;3987;51.458;7.238;2022-08-11T14:04:10;2.00;;;1.88;;
7883;SDS011;3987;51.458;7.238;2022-08-11T14:06:37;4.07;;;1.92;;
7883;SDS011;3987;51.458;7.238;2022-08-11T14:09:08;7.32;;;2.28;;
7883;SDS011;3987;51.458;7.238;2022-08-11T14:11:34;3.50;;;2.15;;
7883;SDS011;3987;51.458;7.238;2022-08-11T14:14:22;2.45;;;1.98;;
7883;SDS011;3987;51.458;7.238;2022-08-11T14:16:49;2.03;;;1.77;;
7883;SDS011;3987;51.458;7.238;2022-08-11T14:19:16;3.65;;;1.80;;
7883;SDS011;3987;51.458;7.238;2022-08-11T14:21:45;7.80;;;1.95;;
7883;SDS011;3987;51.458;7.238;2022-08-11T14:24:29;2.80;;;2.08;;
7883;SDS011;3987;51.458;7.238;2022-08-11T14:26:55;3.50;;;1.90;;
7883;SDS011;3987;51.458;7.238;2022-08-11T14:29:22;2.08;;;1.80;;
7883;SDS011;3987;51.458;7.238;2022-08-11T14:31:56;1.98;;;1.95;;
7883;SDS011;3987;51.458;7.238;2022-08-11T14:34:24;2.00;;;1.90;;
7883;SDS011;3987;51.458;7.238;2022-08-11T14:36:51;3.70;;;2.10;;
7883;SDS011;3987;51.458;7.238;2022-08-11T14:39:20;2.67;;;1.90;;
7883;SDS011;3987;51.458;7.238;2022-08-11T14:41:51;2.55;;;1.90;;
7883;SDS011;3987;51.458;7.238;2022-08-11T14:44:37;10.00;;;2.30;;
7883;SDS011;3987;51.458;7.238;2022-08-11T14:47:23;2.28;;;1.75;;
7883;SDS011;3987;51.458;7.238;2022-08-11T14:49:49;5.35;;;2.03;;
7883;SDS011;3987;51.458;7.238;2022-08-11T14:52:16;8.32;;;2.35;;
7883;SDS011;3987;51.458;7.238;2022-08-11T14:54:45;9.10;;;2.30;;
7883;SDS011;3987;51.458;7.238;2022-08-11T14:57:31;2.70;;;1.98;;
7883;SDS011;3987;51.458;7.238;2022-08-11T15:00:00;2.47;;;2.00;;
7883;SDS011;3987;51.458;7.238;2022-08-11T15:02:28;1.88;;;1.75;;
7883;SDS011;3987;51.458;7.238;2022-08-11T15:05:12;2.55;;;1.88;;
7883;SDS011;3987;51.458;7.238;2022-08-11T15:07:38;8.18;;;2.25;;
7883;SDS011;3987;51.458;7.238;2022-08-11T15:10:05;4.03;;;2.00;;
7883;SDS011;3987;51.458;7.238;2022-08-11T15:12:32;3.53;;;1.80;;
7883;SDS011;3987;51.458;7.238;2022-08-11T15:14:59;3.38;;;1.90;;
7883;SDS011;3987;51.458;7.238;2022-08-11T15:17:44;2.13;;;1.92;;
7883;SDS011;3987;51.458;7.238;2022-08-11T15:20:11;2.45;;;2.17;;
7883;SDS011;3987;51.458;7.238;2022-08-11T15:22:57;3.53;;;1.95;;
7883;SDS011;3987;51.458;7.238;2022-08-11T15:25:42;6.80;;;2.20;;
7883;SDS011;3987;51.458;7.238;2022-08-11T15:28:09;3.50;;;2.10;;
7883;SDS011;3987;51.458;7.238;2022-08-11T15:30:54;3.03;;;2.42;;
7883;SDS011;3987;51.458;7.238;2022-08-11T15:33:40;8.57;;;2.15;;
7883;SDS011;3987;51.458;7.238;2022-08-11T15:36:28;4.00;;;2.33;;
7883;SDS011;3987;51.458;7.238;2022-08-11T15:39:23;2.28;;;2.00;;
7883;SDS011;3987;51.458;7.238;2022-08-11T15:41:56;2.70;;;2.13;;
7883;SDS011;3987;51.458;7.238;2022-08-11T15:44:44;2.65;;;2.55;;
7883;SDS011;3987;51.458;7.238;2022-08-11T15:47:33;4.50;;;2.00;;
7883;SDS011;3987;51.458;7.238;2022-08-11T15:50:06;3.08;;;2.45;;
7883;SDS011;3987;51.458;7.238;2022-08-11T15:52:36;6.47;;;2.13;;
7883;SDS011;3987;51.458;7.238;2022-08-11T15:55:10;2.42;;;2.22;;
7883;SDS011;3987;51.458;7.238;2022-08-11T15:57:36;5.15;;;2.22;;
7883;SDS011;3987;51.458;7.238;2022-08-11T16:00:21;3.92;;;2.40;;
7883;SDS011;3987;51.458;7.238;2022-08-11T16:03:06;3.17;;;2.38;;
7883;SDS011;3987;51.458;7.238;2022-08-11T16:05:51;2.33;;;2.13;;
7883;SDS011;3987;51.458;7.238;2022-08-11T16:08:17;3.90;;;2.07;;
7883;SDS011;3987;51.458;7.238;2022-08-11T16:10:48;4.50;;;2.80;;
7883;SDS011;3987;51.458;7.238;2022-08-11T16:13:14;2.20;;;2.00;;
7883;SDS011;3987;51.458;7.238;2022-08-11T16:15:43;2.40;;;2.30;;
7883;SDS011;3987;51.458;7.238;2022-08-11T16:18:33;2.40;;;2.20;;
7883;SDS011;3987;51.458;7.238;2022-08-11T16:21:09;3.05;;;2.10;;
7883;SDS011;3987;51.458;7.238;2022-08-11T16:23:36;2.80;;;2.50;;
7883;SDS011;3987;51.458;7.238;2022-08-11T16:26:04;2.37;;;2.10;;
7883;SDS011;3987;51.458;7.238;2022-08-11T16:28:30;2.83;;;2.30;;
7883;SDS011;3987;51.458;7.238;2022-08-11T16:30:57;2.70;;;2.60;;
7883;SDS011;3987;51.458;7.238;2022-08-11T16:33:22;3.47;;;2.23;;
7883;SDS011;3987;51.458;7.238;2022-08-11T16:35:49;2.33;;;2.23;;
7883;SDS011;3987;51.458;7.238;2022-08-11T16:38:34;3.37;;;2.60;;
7883;SDS011;3987;51.458;7.238;2022-08-11T16:41:02;5.50;;;2.40;;
7883;SDS011;3987;51.458;7.238;2022-08-11T16:43:44;2.43;;;2.37;;
7883;SDS011;3987;51.458;7.238;2022-08-11T16:46:29;2.63;;;2.43;;
7883;SDS011;3987;51.458;7.238;2022-08-11T16:49:20;3.90;;;2.40;;
7883;SDS011;3987;51.458;7.238;2022-08-11T16:51:49;4.50;;;2.20;;
7883;SDS011;3987;51.458;7.238;2022-08-11T16:54:14;2.93;;;2.03;;
7883;SDS011;3987;51.458;7.238;2022-08-11T16:56:49;3.83;;;2.23;;
7883;SDS011;3987;51.458;7.238;2022-08-11T16:59:18;2.73;;;2.27;;
7883;SDS011;3987;51.458;7.238;2022-08-11T17:01:49;2.10;;;1.90;;
7883;SDS011;3987;51.458;7.238;2022-08-11T17:04:23;2.87;;;2.30;;
7883;SDS011;3987;51.458;7.238;2022-08-11T17:07:08;4.20;;;2.33;;
7883;SDS011;3987;51.458;7.238;2022-08-11T17:09:53;3.03;;;2.90;;
7883;SDS011;3987;51.458;7.238;2022-08-11T17:12:39;3.50;;;2.70;;
7883;SDS011;3987;51.458;7.238;2022-08-11T17:15:23;2.67;;;2.43;;
7883;SDS011;3987;51.458;7.238;2022-08-11T17:18:07;2.43;;;2.23;;
7883;SDS011;3987;51.458;7.238;2022-08-11T17:20:34;3.50;;;2.47;;
7883;SDS011;3987;51.458;7.238;2022-08-11T17:23:00;3.13;;;2.53;;
7883;SDS011;3987;51.458;7.238;2022-08-11T17:25:45;4.57;;;1.90;;
7883;SDS011;3987;51.458;7.238;2022-08-11T17:28:13;2.40;;;2.30;;
7883;SDS011;3987;51.458;7.238;2022-08-11T17:30:40;6.97;;;2.60;;
7883;SDS011;3987;51.458;7.238;2022-08-11T17:33:25;1.93;;;1.90;;
7883;SDS011;3987;51.458;7.238;2022-08-11T17:36:09;2.50;;;2.30;;
7883;SDS011;3987;51.458;7.238;2022-08-11T17:38:36;3.07;;;2.73;;
7883;SDS011;3987;51.458;7.238;2022-08-11T17:41:02;3.73;;;2.33;;
7883;SDS011;3987;51.458;7.238;2022-08-11T17:43:48;3.13;;;2.93;;
7883;SDS011;3987;51.458;7.238;2022-08-11T17:46:33;2.87;;;2.67;;
7883;SDS011;3987;51.458;7.238;2022-08-11T17:49:18;2.07;;;1.90;;
7883;SDS011;3987;51.458;7.238;2022-08-11T17:51:44;2.77;;;2.63;;
7883;SDS011;3987;51.458;7.238;2022-08-11T17:54:30;3.03;;;2.70;;
7883;SDS011;3987;51.458;7.238;2022-08-11T17:57:14;3.03;;;2.83;;
7883;SDS011;3987;51.458;7.238;2022-08-11T17:59:59;2.53;;;2.33;;
7883;SDS011;3987;51.458;7.238;2022-08-11T18:02:33;6.13;;;2.73;;
7883;SDS011;3987;51.458;7.238;2022-08-11T18:05:19;3.50;;;2.47;;
7883;SDS011;3987;51.458;7.238;2022-08-11T18:07:46;3.03;;;2.73;;
7883;SDS011;3987;51.458;7.238;2022-08-11T18:10:31;2.53;;;2.40;;
7883;SDS011;3987;51.458;7.238;2022-08-11T18:13:16;4.10;;;2.67;;
7883;SDS011;3987;51.458;7.238;2022-08-11T18:16:01;2.83;;;2.57;;
7883;SDS011;3987;51.458;7.238;2022-08-11T18:18:45;6.80;;;2.67;;
7883;SDS011;3987;51.458;7.238;2022-08-11T18:21:29;3.10;;;2.43;;
7883;SDS011;3987;51.458;7.238;2022-08-11T18:24:13;3.57;;;2.63;;
7883;SDS011;3987;51.458;7.238;2022-08-11T18:26:59;4.23;;;2.97;;
7883;SDS011;3987;51.458;7.238;2022-08-11T18:29:45;3.23;;;2.90;;
7883;SDS011;3987;51.458;7.238;2022-08-11T18:32:31;5.30;;;2.90;;
7883;SDS011;3987;51.458;7.238;2022-08-11T18:35:17;5.63;;;3.03;;
7883;SDS011;3987;51.458;7.238;2022-08-11T18:38:02;3.57;;;3.00;;
7883;SDS011;3987;51.458;7.238;2022-08-11T18:40:47;2.97;;;2.77;;
7883;SDS011;3987;51.458;7.238;2022-08-11T18:43:32;2.97;;;2.77;;
7883;SDS011;3987;51.458;7.238;2022-08-11T18:46:17;3.20;;;3.00;;
7883;SDS011;3987;51.458;7.238;2022-08-11T18:49:11;2.90;;;2.70;;
7883;SDS011;3987;51.458;7.238;2022-08-11T18:51:56;5.40;;;2.77;;
7883;SDS011;3987;51.458;7.238;2022-08-11T18:54:41;4.40;;;2.87;;
7883;SDS011;3987;51.458;7.238;2022-08-11T18:57:26;4.10;;;3.20;;
7883;SDS011;3987;51.458;7.238;2022-08-11T19:00:10;3.87;;;2.73;;
7883;SDS011;3987;51.458;7.238;2022-08-11T19:02:54;3.20;;;3.00;;
7883;SDS011;3987;51.458;7.238;2022-08-11T19:05:39;3.23;;;2.63;;
7883;SDS011;3987;51.458;7.238;2022-08-11T19:08:27;3.07;;;2.97;;
7883;SDS011;3987;51.458;7.238;2022-08-11T19:11:12;3.10;;;3.00;;